createdAt,value
2018-02-22T00:00:03.464Z,34.9
2018-02-22T00:01:05.201Z,35.4
2018-02-22T00:02:06.963Z,35.5
2018-02-22T00:03:08.997Z,34.8
2018-02-22T00:04:11.058Z,34.7
2018-02-22T00:05:12.763Z,34.7
2018-02-22T00:06:14.515Z,35.6
2018-02-22T00:07:16.529Z,35.6
2018-02-22T00:08:18.271Z,35.6
2018-02-22T00:09:20.425Z,35.3
2018-02-22T00:10:22.480Z,35.3
2018-02-22T00:11:24.539Z,35.0
2018-02-22T00:12:26.595Z,36.0
2018-02-22T00:13:28.737Z,37.4
2018-02-22T00:14:30.938Z,36.9
2018-02-22T00:15:32.856Z,35.4
2018-02-22T00:16:34.763Z,35.9
2018-02-22T00:17:41.076Z,36.5
2018-02-22T00:18:43.148Z,37.2
2018-02-22T00:19:45.164Z,35.3
2018-02-22T00:20:47.088Z,37.9
2018-02-22T00:21:48.984Z,36.8
2018-02-22T00:22:50.760Z,36.6
2018-02-22T00:23:52.736Z,37.6
2018-02-22T00:24:54.433Z,35.4
2018-02-22T00:25:56.507Z,36.2
2018-02-22T00:26:58.579Z,36.7
2018-02-22T00:28:00.483Z,36.6
2018-02-22T00:29:02.448Z,36.6
2018-02-22T00:30:04.206Z,37.2
2018-02-22T00:31:06.130Z,36.2
2018-02-22T00:32:08.199Z,37.1
2018-02-22T00:33:10.123Z,35.9
2018-02-22T00:34:12.118Z,38.2
2018-02-22T00:35:14.041Z,36.4
2018-02-22T00:36:16.111Z,36.4
2018-02-22T00:37:17.901Z,35.5
2018-02-22T00:38:19.642Z,35.3
2018-02-22T00:39:21.477Z,36.1
2018-02-22T00:40:23.556Z,36.3
2018-02-22T00:41:25.476Z,34.4
2018-02-22T00:42:27.379Z,35.6
2018-02-22T00:43:29.302Z,37.0
2018-02-22T00:44:31.401Z,34.1
2018-02-22T00:47:54.250Z,35.3
2018-02-22T00:48:56.958Z,35.6
2018-02-22T00:49:58.958Z,35.7
2018-02-22T00:51:01.087Z,33.6
2018-02-22T00:52:03.272Z,35.4
2018-02-22T00:53:05.477Z,34.2
2018-02-22T00:54:07.796Z,35.9
2018-02-22T00:55:09.985Z,35.9
2018-02-22T00:56:12.138Z,36.5
2018-02-22T00:57:14.272Z,35.2
2018-02-22T00:58:16.480Z,35.7
2018-02-22T00:59:18.725Z,35.5
2018-02-22T01:00:20.970Z,34.7
2018-02-22T01:01:23.217Z,35.6
2018-02-22T01:02:25.321Z,34.8
2018-02-22T01:03:27.500Z,35.5
2018-02-22T01:04:29.748Z,33.4
2018-02-22T01:05:31.886Z,35.4
2018-02-22T01:06:33.911Z,34.2
2018-02-22T01:07:36.087Z,34.5
2018-02-22T01:08:38.275Z,35.9
2018-02-22T01:09:40.552Z,34.6
2018-02-22T01:10:42.704Z,36.2
2018-02-22T01:11:44.835Z,35.2
2018-02-22T01:12:46.964Z,34.7
2018-02-22T01:13:49.331Z,35.1
2018-02-22T01:14:51.530Z,33.8
2018-02-22T01:15:53.670Z,35.0
2018-02-22T01:16:55.908Z,33.6
2018-02-22T01:17:58.153Z,34.8
2018-02-22T01:19:00.364Z,35.9
2018-02-22T01:20:02.536Z,35.8
2018-02-22T01:21:04.677Z,36.2
2018-02-22T01:22:06.925Z,34.6
2018-02-22T01:23:09.045Z,35.2
2018-02-22T01:24:11.073Z,35.8
2018-02-22T01:25:13.198Z,35.7
2018-02-22T01:26:15.411Z,34.2
2018-02-22T01:27:17.465Z,35.3
2018-02-22T01:28:19.562Z,34.5
2018-02-22T01:29:21.717Z,34.1
2018-02-22T01:30:23.975Z,35.0
2018-02-22T01:31:26.143Z,34.2
2018-02-22T01:32:28.333Z,34.9
2018-02-22T01:33:30.537Z,35.4
2018-02-22T01:34:32.717Z,36.0
2018-02-22T01:35:34.903Z,34.4
2018-02-22T01:36:37.048Z,35.9
2018-02-22T01:37:39.183Z,35.5
2018-02-22T01:38:41.192Z,34.9
2018-02-22T01:39:43.421Z,34.1
2018-02-22T01:40:45.487Z,35.4
2018-02-22T01:41:47.698Z,33.8
2018-02-22T01:42:49.889Z,35.0
2018-02-22T01:43:52.082Z,36.7
2018-02-22T01:44:54.307Z,34.2
2018-02-22T01:45:56.539Z,34.3
2018-02-22T01:46:58.690Z,34.4
2018-02-22T01:48:00.871Z,36.3
2018-02-22T01:49:03.200Z,34.0
2018-02-22T01:50:05.391Z,34.4
2018-02-22T01:51:07.555Z,35.2
2018-02-22T01:52:09.697Z,35.0
2018-02-22T01:53:11.843Z,35.0
2018-02-22T01:54:14.030Z,34.9
2018-02-22T01:55:16.189Z,33.8
2018-02-22T01:56:18.390Z,33.9
2018-02-22T01:57:20.542Z,35.4
2018-02-22T01:58:22.823Z,34.4
2018-02-22T01:59:24.884Z,34.9
2018-02-22T02:00:26.984Z,36.1
2018-02-22T02:01:29.076Z,34.9
2018-02-22T02:02:31.281Z,33.2
2018-02-22T02:03:33.452Z,34.1
2018-02-22T02:04:35.614Z,33.9
2018-02-22T02:05:37.769Z,35.8
2018-02-22T02:06:40.029Z,33.8
2018-02-22T02:07:42.309Z,34.3
2018-02-22T02:08:44.516Z,33.8
2018-02-22T02:09:46.691Z,34.5
2018-02-22T02:10:48.898Z,34.2
2018-02-22T02:11:51.016Z,36.3
2018-02-22T02:12:54.122Z,33.7
2018-02-22T02:13:56.374Z,35.2
2018-02-22T02:14:58.670Z,35.3
2018-02-22T02:16:00.831Z,35.4
2018-02-22T02:17:03.525Z,34.9
2018-02-22T02:18:05.785Z,35.7
2018-02-22T02:19:08.591Z,33.6
2018-02-22T02:20:10.763Z,33.8
2018-02-22T02:21:12.914Z,33.8
2018-02-22T02:22:15.155Z,34.1
2018-02-22T02:23:18.019Z,35.6
2018-02-22T02:24:20.159Z,35.0
2018-02-22T02:25:22.278Z,34.4
2018-02-22T02:26:24.533Z,34.7
2018-02-22T02:27:26.782Z,33.7
2018-02-22T02:28:29.057Z,36.1
2018-02-22T02:29:34.108Z,34.0
2018-02-22T02:30:36.281Z,34.2
2018-02-22T02:31:38.476Z,35.9
2018-02-22T02:32:40.667Z,35.3
2018-02-22T02:33:42.839Z,35.8
2018-02-22T02:34:45.134Z,34.6
2018-02-22T02:35:47.340Z,35.1
2018-02-22T02:36:49.554Z,36.0
2018-02-22T02:37:51.802Z,35.0
2018-02-22T02:38:53.981Z,36.4
2018-02-22T02:39:56.206Z,35.1
2018-02-22T02:40:59.008Z,33.7
2018-02-22T02:42:01.188Z,34.3
2018-02-22T02:43:03.357Z,35.4
2018-02-22T02:44:05.495Z,35.9
2018-02-22T02:45:08.579Z,34.6
2018-02-22T02:46:10.759Z,34.5
2018-02-22T02:47:13.028Z,34.3
2018-02-22T02:48:15.230Z,34.7
2018-02-22T02:49:17.449Z,34.4
2018-02-22T02:50:19.621Z,33.4
2018-02-22T02:51:22.616Z,32.4
2018-02-22T02:52:24.827Z,33.2
2018-02-22T02:53:27.602Z,34.9
2018-02-22T02:54:30.522Z,32.8
2018-02-22T02:55:32.663Z,34.0
2018-02-22T02:56:34.823Z,33.3
2018-02-22T02:57:37.160Z,32.9
2018-02-22T02:58:42.152Z,31.5
2018-02-22T02:59:44.337Z,32.4
2018-02-22T03:00:47.082Z,34.7
2018-02-22T03:01:49.168Z,32.0
2018-02-22T03:02:51.353Z,33.5
2018-02-22T03:03:53.440Z,34.6
2018-02-22T03:04:55.683Z,33.0
2018-02-22T03:05:57.959Z,31.5
2018-02-22T03:07:00.111Z,33.2
2018-02-22T03:08:02.331Z,32.9
2018-02-22T03:09:05.096Z,31.7
2018-02-22T03:10:07.316Z,32.9
2018-02-22T03:11:09.503Z,32.1
2018-02-22T03:12:11.708Z,33.5
2018-02-22T03:13:13.844Z,32.6
2018-02-22T03:14:16.065Z,31.9
2018-02-22T03:15:21.153Z,32.2
2018-02-22T03:16:24.044Z,31.4
2018-02-22T03:17:27.145Z,33.5
2018-02-22T03:18:29.296Z,32.1
2018-02-22T03:19:38.141Z,32.2
2018-02-22T03:20:40.249Z,31.4
2018-02-22T03:21:42.470Z,31.2
2018-02-22T03:22:44.700Z,32.0
2018-02-22T03:23:46.835Z,30.8
2018-02-22T03:24:49.018Z,32.1
2018-02-22T03:25:51.292Z,31.8
2018-02-22T03:26:53.482Z,32.8
2018-02-22T03:27:55.744Z,33.0
2018-02-22T03:28:58.679Z,32.5
2018-02-22T03:30:00.899Z,34.0
2018-02-22T03:31:03.684Z,32.5
2018-02-22T03:32:05.808Z,32.4
2018-02-22T03:33:08.018Z,30.6
2018-02-22T03:34:10.208Z,33.6
2018-02-22T03:35:12.835Z,33.3
2018-02-22T03:36:14.985Z,32.9
2018-02-22T03:37:17.130Z,30.0
2018-02-22T03:38:19.366Z,33.7
2018-02-22T03:39:21.628Z,33.8
2018-02-22T03:40:23.755Z,33.2
2018-02-22T03:41:25.904Z,34.2
2018-02-22T03:42:28.701Z,34.9
2018-02-22T03:43:30.845Z,33.1
2018-02-22T03:44:33.749Z,35.2
2018-02-22T03:45:36.726Z,32.6
2018-02-22T03:46:39.082Z,32.3
2018-02-22T03:47:41.283Z,30.9
2018-02-22T03:48:44.106Z,32.9
2018-02-22T03:49:46.336Z,32.3
2018-02-22T03:50:48.548Z,32.5
2018-02-22T03:51:50.759Z,31.4
2018-02-22T03:52:52.932Z,33.5
2018-02-22T03:53:55.218Z,32.3
2018-02-22T03:54:57.418Z,31.6
2018-02-22T03:55:59.637Z,30.6
2018-02-22T03:57:01.872Z,32.1
2018-02-22T03:58:04.348Z,31.7
2018-02-22T03:59:09.141Z,32.5
2018-02-22T04:00:11.341Z,32.8
2018-02-22T04:01:13.586Z,31.5
2018-02-22T04:02:15.736Z,31.8
2018-02-22T04:03:17.773Z,31.2
2018-02-22T04:04:19.957Z,31.8
2018-02-22T04:05:22.060Z,29.8
2018-02-22T04:06:25.142Z,31.9
2018-02-22T04:07:27.325Z,30.8
2018-02-22T04:08:29.441Z,31.2
2018-02-22T04:09:31.656Z,31.5
2018-02-22T04:10:34.552Z,31.7
2018-02-22T04:11:37.769Z,30.6
2018-02-22T04:12:40.637Z,30.8
2018-02-22T04:13:42.825Z,31.3
2018-02-22T04:14:45.095Z,30.1
2018-02-22T04:15:47.319Z,32.5
2018-02-22T04:16:50.175Z,31.7
2018-02-22T04:17:53.207Z,32.0
2018-02-22T04:18:56.153Z,30.7
2018-02-22T04:19:58.582Z,29.9
2018-02-22T04:21:00.704Z,31.8
2018-02-22T04:23:13.521Z,32.0
2018-02-22T04:24:15.147Z,31.1
2018-02-22T04:25:16.758Z,30.6
2018-02-22T04:26:18.572Z,32.8
2018-02-22T04:27:20.406Z,31.1
2018-02-22T04:28:22.043Z,31.7
2018-02-22T04:29:23.696Z,30.0
2018-02-22T04:30:25.699Z,31.8
2018-02-22T04:31:27.412Z,30.3
2018-02-22T04:32:29.245Z,29.8
2018-02-22T04:33:31.193Z,29.5
2018-02-22T04:34:32.949Z,30.1
2018-02-22T04:35:35.023Z,30.5
2018-02-22T04:36:37.162Z,31.6
2018-02-22T04:37:39.110Z,30.3
2018-02-22T04:38:41.292Z,31.5
2018-02-22T04:39:43.070Z,30.4
2018-02-22T04:40:45.137Z,30.6
2018-02-22T04:41:47.162Z,28.4
2018-02-22T04:42:49.370Z,28.9
2018-02-22T04:43:51.534Z,30.8
2018-02-22T04:44:53.371Z,30.6
2018-02-22T04:45:55.290Z,31.6
2018-02-22T04:46:57.425Z,30.1
2018-02-22T04:47:59.448Z,30.5
2018-02-22T04:49:01.153Z,29.9
2018-02-22T04:50:03.179Z,31.6
2018-02-22T04:51:05.022Z,30.6
2018-02-22T04:52:06.791Z,30.6
2018-02-22T04:53:08.791Z,30.5
2018-02-22T04:54:10.784Z,29.4
2018-02-22T04:55:12.546Z,29.6
2018-02-22T04:56:14.349Z,29.9
2018-02-22T04:57:16.337Z,30.5
2018-02-22T04:58:18.448Z,29.2
2018-02-22T04:59:20.365Z,29.7
2018-02-22T05:00:22.044Z,30.2
2018-02-22T05:01:23.883Z,29.3
2018-02-22T05:02:25.632Z,28.9
2018-02-22T05:03:27.716Z,30.1
2018-02-22T05:04:29.809Z,29.5
2018-02-22T05:05:31.791Z,29.8
2018-02-22T05:06:33.775Z,29.7
2018-02-22T05:07:35.898Z,29.7
2018-02-22T05:08:37.958Z,30.9
2018-02-22T05:09:39.967Z,30.1
2018-02-22T05:10:42.780Z,30.6
2018-02-22T05:11:44.878Z,29.0
2018-02-22T05:12:46.918Z,28.8
2018-02-22T05:13:48.645Z,29.1
2018-02-22T05:14:50.383Z,28.3
2018-02-22T05:15:52.441Z,30.0
2018-02-22T05:16:54.222Z,29.2
2018-02-22T05:17:56.305Z,29.7
2018-02-22T05:18:58.039Z,30.1
2018-02-22T05:19:59.833Z,29.7
2018-02-22T05:21:01.575Z,28.8
2018-02-22T05:22:03.332Z,28.4
2018-02-22T05:23:05.234Z,29.7
2018-02-22T05:24:06.843Z,29.4
2018-02-22T05:25:08.614Z,29.4
2018-02-22T05:26:10.255Z,29.7
2018-02-22T05:27:12.007Z,29.5
2018-02-22T05:28:13.683Z,28.0
2018-02-22T05:29:15.585Z,29.5
2018-02-22T05:30:17.605Z,27.5
2018-02-22T05:31:19.679Z,29.1
2018-02-22T05:32:21.592Z,29.9
2018-02-22T05:33:23.991Z,27.9
2018-02-22T05:34:25.789Z,28.4
2018-02-22T05:35:27.484Z,28.1
2018-02-22T05:36:29.206Z,29.2
2018-02-22T05:37:30.951Z,28.2
2018-02-22T05:38:32.544Z,27.9
2018-02-22T05:39:34.723Z,29.2
2018-02-22T05:40:36.548Z,28.9
2018-02-22T05:41:38.441Z,28.3
2018-02-22T05:42:40.550Z,29.4
2018-02-22T05:43:42.293Z,28.6
2018-02-22T05:44:44.596Z,28.5
2018-02-22T05:45:46.776Z,29.6
2018-02-22T05:46:48.885Z,28.3
2018-02-22T05:47:50.657Z,28.0
2018-02-22T05:48:52.565Z,28.2
2018-02-22T05:49:54.471Z,27.8
2018-02-22T05:50:57.239Z,28.5
2018-02-22T05:51:59.340Z,28.0
2018-02-22T05:53:01.063Z,27.9
2018-02-22T05:54:03.378Z,27.3
2018-02-22T05:55:06.258Z,28.3
2018-02-22T05:56:08.831Z,28.0
2018-02-22T05:57:10.925Z,28.8
2018-02-22T05:58:14.447Z,28.3
2018-02-22T05:59:17.611Z,27.7
2018-02-22T06:00:20.172Z,27.7
2018-02-22T06:01:22.938Z,27.5
2018-02-22T06:02:24.847Z,28.9
2018-02-22T06:03:27.053Z,27.9
2018-02-22T06:04:29.612Z,26.9
2018-02-22T06:05:31.344Z,28.5
2018-02-22T06:06:33.703Z,28.5
2018-02-22T06:07:35.797Z,28.3
2018-02-22T06:08:37.876Z,28.8
2018-02-22T06:09:39.962Z,28.7
2018-02-22T06:10:42.120Z,28.1
2018-02-22T06:11:43.774Z,28.5
2018-02-22T06:12:45.395Z,28.6
2018-02-22T06:13:47.089Z,28.3
2018-02-22T06:14:48.895Z,29.3
2018-02-22T06:15:50.542Z,27.1
2018-02-22T06:16:52.173Z,27.6
2018-02-22T06:17:53.817Z,26.5
2018-02-22T06:18:55.951Z,27.3
2018-02-22T06:19:58.010Z,28.6
2018-02-22T06:21:02.220Z,28.5
2018-02-22T06:22:05.235Z,28.8
2018-02-22T06:23:07.620Z,28.5
2018-02-22T06:24:09.527Z,27.6
2018-02-22T06:25:15.937Z,29.3
2018-02-22T06:26:16.596Z,28.6
2018-02-22T06:27:19.135Z,28.7
2018-02-22T06:28:21.211Z,28.6
2018-02-22T06:29:23.329Z,28.9
2018-02-22T06:30:25.424Z,29.5
2018-02-22T06:31:27.286Z,29.0
2018-02-22T06:32:29.114Z,29.7
2018-02-22T06:33:31.355Z,29.7
2018-02-22T06:34:35.605Z,28.3
2018-02-22T06:35:37.540Z,28.4
2018-02-22T06:36:39.468Z,28.9
2018-02-22T06:37:54.702Z,29.1
2018-02-22T06:38:58.658Z,28.4
2018-02-22T06:40:04.774Z,28.8
2018-02-22T06:41:06.812Z,29.3
2018-02-22T06:42:08.755Z,29.4
2018-02-22T06:43:10.918Z,27.0
2018-02-22T06:44:13.156Z,28.3
2018-02-22T06:45:14.948Z,29.2
2018-02-22T06:46:17.072Z,28.5
2018-02-22T06:47:19.434Z,27.4
2018-02-22T06:48:22.305Z,28.7
2018-02-22T06:49:25.960Z,28.4
2018-02-22T06:50:28.977Z,28.1
2018-02-22T06:51:31.009Z,28.5
2018-02-22T06:52:33.002Z,28.5
2018-02-22T06:53:35.167Z,27.7
2018-02-22T06:54:39.083Z,27.2
2018-02-22T06:55:40.973Z,28.6
2018-02-22T06:56:43.004Z,28.3
2018-02-22T06:57:44.915Z,27.0
2018-02-22T06:58:46.640Z,29.2
2018-02-22T06:59:48.705Z,27.1
2018-02-22T07:00:50.811Z,28.2
2018-02-22T07:01:52.837Z,27.5
2018-02-22T07:02:55.355Z,27.6
2018-02-22T07:03:57.682Z,27.0
2018-02-22T07:04:59.839Z,26.9
2018-02-22T07:06:01.802Z,27.8
2018-02-22T07:07:03.900Z,27.4
2018-02-22T07:08:05.946Z,26.9
2018-02-22T07:09:08.101Z,27.4
2018-02-22T07:10:10.573Z,27.5
2018-02-22T07:12:23.117Z,29.1
2018-02-22T07:13:27.326Z,27.4
2018-02-22T07:14:29.253Z,26.3
2018-02-22T07:15:31.253Z,27.6
2018-02-22T07:16:33.301Z,26.3
2018-02-22T07:17:35.366Z,27.6
2018-02-22T07:18:37.775Z,27.3
2018-02-22T07:19:40.181Z,27.3
2018-02-22T07:20:42.458Z,27.8
2018-02-22T07:21:45.014Z,28.9
2018-02-22T07:22:46.999Z,28.2
2018-02-22T07:23:49.037Z,27.0
2018-02-22T07:24:51.509Z,26.7
2018-02-22T07:25:53.745Z,27.4
2018-02-22T07:26:56.404Z,26.7
2018-02-22T07:29:08.872Z,27.1
2018-02-22T07:30:11.462Z,27.5
2018-02-22T07:31:13.812Z,26.8
2018-02-22T07:32:16.218Z,27.1
2018-02-22T07:33:18.579Z,25.4
2018-02-22T07:34:22.218Z,26.3
2018-02-22T07:35:25.092Z,25.4
2018-02-22T07:36:27.368Z,26.3
2018-02-22T07:37:30.142Z,25.0
2018-02-22T07:38:32.941Z,25.7
2018-02-22T07:39:35.198Z,25.9
2018-02-22T07:40:37.479Z,25.7
2018-02-22T07:41:39.659Z,24.8
2018-02-22T07:42:41.806Z,25.3
2018-02-22T07:43:44.060Z,24.4
2018-02-22T07:44:46.361Z,25.2
2018-02-22T07:45:48.593Z,24.5
2018-02-22T07:46:50.808Z,24.6
2018-02-22T07:47:53.668Z,24.9
2018-02-22T07:48:55.812Z,23.8
2018-02-22T07:49:57.981Z,24.0
2018-02-22T07:51:07.151Z,23.2
2018-02-22T07:52:09.430Z,23.3
2018-02-22T07:53:11.674Z,24.0
2018-02-22T07:54:13.929Z,22.3
2018-02-22T07:55:17.106Z,21.7
2018-02-22T07:56:22.069Z,22.3
2018-02-22T07:57:25.266Z,22.1
2018-02-22T07:58:27.511Z,22.0
2018-02-22T07:59:30.055Z,21.5
2018-02-22T08:00:33.119Z,22.1
2018-02-22T08:01:35.712Z,22.2
2018-02-22T08:02:44.614Z,23.1
2018-02-22T08:03:46.980Z,21.9
2018-02-22T08:04:49.155Z,21.9
2018-02-22T08:05:51.522Z,21.6
2018-02-22T08:06:53.587Z,21.3
2018-02-22T08:07:55.862Z,21.5
2018-02-22T08:08:58.540Z,21.6
2018-02-22T08:10:00.781Z,20.7
2018-02-22T08:11:02.942Z,21.6
2018-02-22T08:12:05.117Z,21.3
2018-02-22T08:13:07.977Z,21.5
2018-02-22T08:14:13.412Z,21.1
2018-02-22T08:15:16.575Z,20.7
2018-02-22T08:16:18.751Z,21.3
2018-02-22T08:17:21.071Z,19.7
2018-02-22T08:18:23.324Z,20.1
2018-02-22T08:19:26.085Z,21.4
2018-02-22T08:20:28.347Z,20.3
2018-02-22T08:22:40.050Z,20.5
2018-02-22T08:23:41.651Z,19.8
2018-02-22T08:25:34.943Z,19.6
2018-02-22T08:26:38.508Z,20.5
2018-02-22T08:27:40.062Z,19.5
2018-02-22T08:28:42.724Z,19.3
2018-02-22T08:29:44.905Z,19.6
2018-02-22T08:30:46.972Z,19.7
2018-02-22T08:31:49.003Z,18.9
2018-02-22T08:32:50.809Z,20.1
2018-02-22T08:33:52.840Z,19.5
2018-02-22T08:34:55.123Z,19.6
2018-02-22T08:35:56.877Z,19.6
2018-02-22T08:36:58.704Z,19.4
2018-02-22T08:38:00.732Z,18.3
2018-02-22T08:39:02.610Z,18.1
2018-02-22T08:40:04.523Z,19.3
2018-02-22T08:41:06.273Z,18.2
2018-02-22T08:42:07.964Z,18.7
2018-02-22T08:43:09.636Z,17.6
2018-02-22T08:44:11.649Z,19.0
2018-02-22T08:45:13.808Z,18.9
2018-02-22T08:46:15.856Z,17.6
2018-02-22T08:47:17.703Z,18.4
2018-02-22T08:48:19.782Z,17.2
2018-02-22T08:49:22.222Z,17.9
2018-02-22T08:50:24.293Z,17.2
2018-02-22T08:51:26.660Z,18.5
2018-02-22T08:52:28.720Z,18.2
2018-02-22T08:53:30.542Z,18.0
2018-02-22T08:54:32.392Z,17.9
2018-02-22T08:55:34.512Z,18.4
2018-02-22T08:56:36.628Z,17.3
2018-02-22T08:57:38.461Z,18.8
2018-02-22T08:58:40.233Z,18.7
2018-02-22T08:59:42.190Z,18.1
2018-02-22T09:00:43.964Z,18.9
2018-02-22T09:01:45.712Z,18.6
2018-02-22T09:02:47.457Z,18.4
2018-02-22T09:03:49.170Z,18.1
2018-02-22T09:04:50.974Z,18.2
2018-02-22T09:05:52.776Z,18.4
2018-02-22T09:06:54.583Z,18.0
2018-02-22T09:07:56.795Z,17.5
2018-02-22T09:08:59.516Z,17.9
2018-02-22T09:10:01.714Z,18.2
2018-02-22T09:11:04.211Z,18.2
2018-02-22T09:12:06.753Z,18.4
2018-02-22T09:13:09.057Z,18.0
2018-02-22T09:14:13.204Z,17.5
2018-02-22T09:15:15.478Z,17.7
2018-02-22T09:16:18.224Z,18.2
2018-02-22T09:17:20.849Z,17.1
2018-02-22T09:18:22.929Z,18.5
2018-02-22T09:19:24.618Z,17.4
2018-02-22T09:20:27.027Z,17.8
2018-02-22T09:21:29.503Z,17.0
2018-02-22T09:22:32.677Z,17.6
2018-02-22T09:23:35.002Z,17.2
2018-02-22T09:24:37.176Z,17.8
2018-02-22T09:25:40.412Z,16.7
2018-02-22T09:26:42.845Z,17.3
2018-02-22T09:27:45.685Z,18.3
2018-02-22T09:28:47.878Z,18.4
2018-02-22T09:29:49.712Z,18.3
2018-02-22T09:32:03.598Z,18.0
2018-02-22T09:33:07.695Z,18.3
2018-02-22T09:34:13.499Z,17.6
2018-02-22T09:35:16.935Z,17.3
2018-02-22T09:36:20.329Z,17.3
2018-02-22T09:37:26.347Z,17.5
2018-02-22T09:38:29.992Z,18.0
2018-02-22T09:39:33.780Z,17.7
2018-02-22T09:40:36.974Z,16.8
2018-02-22T09:41:39.940Z,17.5
2018-02-22T09:42:45.893Z,18.1
2018-02-22T09:44:04.109Z,17.5
2018-02-22T09:45:08.294Z,17.0
2018-02-22T09:46:11.600Z,17.8
2018-02-22T09:47:16.623Z,17.4
2018-02-22T09:48:20.588Z,17.2
2018-02-22T09:49:23.470Z,16.8
2018-02-22T09:50:27.500Z,18.2
2018-02-22T09:51:30.203Z,17.4
2018-02-22T09:52:32.996Z,17.5
2018-02-22T09:53:36.679Z,17.1
2018-02-22T09:54:40.105Z,17.3
2018-02-22T09:55:43.374Z,17.1
2018-02-22T09:56:47.122Z,16.7
2018-02-22T09:57:50.444Z,17.4
2018-02-22T09:58:54.450Z,16.9
2018-02-22T09:59:56.625Z,16.2
2018-02-22T10:01:02.002Z,15.7
2018-02-22T10:02:04.400Z,15.6
2018-02-22T10:03:06.607Z,15.8
2018-02-22T10:04:09.133Z,16.2
2018-02-22T10:05:12.332Z,15.8
2018-02-22T10:06:15.171Z,16.4
2018-02-22T10:07:17.537Z,15.9
2018-02-22T10:08:19.778Z,15.9
2018-02-22T10:09:22.280Z,17.6
2018-02-22T10:10:24.202Z,16.7
2018-02-22T10:11:26.716Z,15.7
2018-02-22T10:12:29.138Z,16.5
2018-02-22T10:13:31.387Z,16.7
2018-02-22T10:14:33.688Z,16.4
2018-02-22T10:15:36.108Z,17.3
2018-02-22T10:16:38.317Z,16.3
2018-02-22T10:17:40.671Z,16.6
2018-02-22T10:18:42.913Z,16.6
2018-02-22T10:19:45.358Z,16.1
2018-02-22T10:20:48.960Z,17.1
2018-02-22T10:21:51.785Z,16.6
2018-02-22T10:22:54.140Z,17.0
2018-02-22T10:23:57.086Z,16.6
2018-02-22T10:24:59.710Z,16.8
2018-02-22T10:26:01.936Z,16.6
2018-02-22T10:27:04.291Z,17.2
2018-02-22T10:28:06.481Z,16.7
2018-02-22T10:29:08.798Z,17.8
2018-02-22T10:30:11.056Z,17.5
2018-02-22T10:31:13.284Z,16.9
2018-02-22T10:32:15.180Z,17.2
2018-02-22T10:33:17.365Z,17.3
2018-02-22T10:34:19.196Z,16.8
2018-02-22T10:35:21.505Z,17.6
2018-02-22T10:36:24.055Z,18.1
2018-02-22T10:37:26.459Z,18.4
2018-02-22T10:38:29.422Z,16.2
2018-02-22T10:39:31.823Z,16.7
2018-02-22T10:40:34.319Z,16.6
2018-02-22T10:41:36.262Z,17.2
2018-02-22T10:42:38.474Z,16.6
2018-02-22T10:43:40.488Z,16.0
2018-02-22T10:44:42.481Z,15.3
2018-02-22T10:45:45.395Z,15.1
2018-02-22T10:46:47.872Z,15.5
2018-02-22T10:47:50.064Z,14.8
2018-02-22T10:48:53.053Z,14.1
2018-02-22T10:49:58.005Z,15.2
2018-02-22T10:51:00.287Z,15.1
2018-02-22T10:52:02.583Z,15.1
2018-02-22T10:53:05.471Z,13.9
2018-02-22T10:54:08.515Z,15.5
2018-02-22T10:55:10.807Z,14.4
2018-02-22T10:56:13.031Z,14.3
2018-02-22T10:57:15.325Z,14.7
2018-02-22T10:58:17.498Z,14.9
2018-02-22T10:59:19.797Z,15.5
2018-02-22T11:00:22.049Z,15.4
2018-02-22T11:01:26.869Z,15.4
2018-02-22T11:02:29.176Z,15.8
2018-02-22T11:03:32.121Z,15.3
2018-02-22T11:04:34.141Z,14.9
2018-02-22T11:05:36.458Z,14.8
2018-02-22T11:06:38.726Z,14.6
2018-02-22T11:07:41.488Z,14.7
2018-02-22T11:08:43.623Z,14.7
2018-02-22T11:09:45.943Z,14.0
2018-02-22T11:10:48.353Z,14.0
2018-02-22T11:11:50.863Z,14.4
2018-02-22T11:12:53.097Z,13.5
2018-02-22T11:13:55.088Z,13.2
2018-02-22T11:14:58.823Z,12.9
2018-02-22T11:16:00.990Z,13.7
2018-02-22T11:17:03.912Z,13.9
2018-02-22T11:18:06.105Z,12.5
2018-02-22T11:19:09.038Z,12.5
2018-02-22T11:20:10.802Z,13.2
2018-02-22T11:21:13.894Z,12.9
2018-02-22T11:22:16.091Z,12.5
2018-02-22T11:23:18.219Z,13.1
2018-02-22T11:24:20.418Z,12.5
2018-02-22T11:25:25.404Z,12.8
2018-02-22T11:26:27.508Z,13.0
2018-02-22T11:27:29.381Z,12.7
2018-02-22T11:28:31.916Z,12.6
2018-02-22T11:29:34.175Z,12.4
2018-02-22T11:30:36.402Z,12.9
2018-02-22T11:31:38.402Z,11.3
2018-02-22T11:32:40.683Z,12.5
2018-02-22T11:33:42.799Z,11.8
2018-02-22T11:34:44.854Z,12.1
2018-02-22T11:35:47.130Z,12.0
2018-02-22T11:36:49.181Z,11.8
2018-02-22T11:37:51.138Z,12.4
2018-02-22T11:38:53.196Z,11.9
2018-02-22T11:39:55.453Z,12.2
2018-02-22T11:40:57.382Z,12.0
2018-02-22T11:42:02.617Z,11.4
2018-02-22T11:43:04.615Z,11.8
2018-02-22T11:44:13.188Z,11.7
2018-02-22T11:45:15.430Z,11.3
2018-02-22T11:46:17.786Z,11.8
2018-02-22T11:47:20.130Z,11.9
2018-02-22T11:48:22.984Z,11.1
2018-02-22T11:49:25.915Z,11.6
2018-02-22T11:50:28.295Z,10.9
2018-02-22T11:51:31.418Z,11.9
2018-02-22T11:52:33.388Z,10.9
2018-02-22T11:53:35.748Z,11.5
2018-02-22T11:54:37.789Z,11.5
2018-02-22T11:55:39.601Z,10.7
2018-02-22T11:56:42.421Z,11.6
2018-02-22T11:57:44.493Z,10.9
2018-02-22T11:58:49.476Z,11.1
2018-02-22T11:59:58.509Z,10.7
2018-02-22T12:02:11.591Z,11.6
2018-02-22T12:03:13.774Z,11.6
2018-02-22T12:04:15.745Z,12.4
2018-02-22T12:05:17.754Z,11.9
2018-02-22T12:06:19.485Z,11.4
2018-02-22T12:07:21.328Z,11.3
2018-02-22T12:08:23.226Z,11.4
2018-02-22T12:09:24.911Z,10.9
2018-02-22T12:10:26.657Z,11.6
2018-02-22T12:11:28.423Z,11.8
2018-02-22T12:12:30.140Z,11.7
2018-02-22T12:13:31.862Z,12.2
2018-02-22T12:14:33.611Z,11.9
2018-02-22T12:15:35.382Z,11.8
2018-02-22T12:16:37.122Z,11.6
2018-02-22T12:17:38.866Z,11.0
2018-02-22T12:18:40.756Z,11.3
2018-02-22T12:19:42.569Z,12.2
2018-02-22T12:20:44.295Z,12.1
2018-02-22T12:21:46.096Z,12.3
2018-02-22T12:22:47.820Z,12.5
2018-02-22T12:23:49.557Z,12.3
2018-02-22T12:24:51.267Z,12.2
2018-02-22T12:25:53.028Z,12.2
2018-02-22T12:26:54.834Z,11.7
2018-02-22T12:27:56.547Z,12.0
2018-02-22T12:28:58.325Z,11.8
2018-02-22T12:30:00.131Z,12.8
2018-02-22T12:31:01.940Z,12.0
2018-02-22T12:32:03.644Z,12.3
2018-02-22T12:33:05.369Z,12.1
2018-02-22T12:34:07.101Z,12.0
2018-02-22T12:35:08.850Z,12.3
2018-02-22T12:36:10.589Z,12.6
2018-02-22T12:37:12.386Z,12.5
2018-02-22T12:38:14.207Z,13.0
2018-02-22T12:39:16.031Z,12.2
2018-02-22T12:40:17.812Z,12.8
2018-02-22T12:41:19.623Z,12.6
2018-02-22T12:42:21.433Z,12.7
2018-02-22T12:43:23.174Z,13.3
2018-02-22T12:44:24.961Z,13.0
2018-02-22T12:45:26.828Z,13.2
2018-02-22T12:46:28.616Z,12.9
2018-02-22T12:47:30.344Z,13.4
2018-02-22T12:48:32.121Z,12.6
2018-02-22T12:49:33.847Z,13.4
2018-02-22T12:50:35.652Z,12.5
2018-02-22T12:51:37.426Z,12.7
2018-02-22T12:52:39.147Z,12.5
2018-02-22T12:53:40.889Z,12.0
2018-02-22T12:54:43.229Z,12.9
2018-02-22T12:55:45.403Z,12.7
2018-02-22T12:56:47.151Z,12.8
2018-02-22T12:58:59.953Z,13.1
2018-02-22T13:00:01.704Z,13.6
2018-02-22T13:04:35.007Z,13.2
2018-02-22T13:05:36.830Z,14.2
2018-02-22T13:06:38.592Z,14.1
2018-02-22T13:07:41.121Z,14.8
2018-02-22T13:08:43.279Z,14.5
2018-02-22T13:09:45.337Z,13.6
2018-02-22T13:10:47.530Z,13.9
2018-02-22T13:11:56.447Z,14.1
2018-02-22T13:12:58.721Z,13.9
2018-02-22T13:14:01.008Z,13.6
2018-02-22T13:15:02.822Z,13.6
2018-02-22T13:16:07.695Z,13.4
2018-02-22T13:17:09.877Z,14.0
2018-02-22T13:18:11.823Z,13.4
2018-02-22T13:19:13.782Z,14.1
2018-02-22T13:20:15.975Z,13.7
2018-02-22T13:21:17.942Z,14.0
2018-02-22T13:22:19.841Z,13.6
2018-02-22T13:23:22.080Z,13.5
2018-02-22T13:24:23.761Z,13.1
2018-02-22T13:25:25.976Z,13.3
2018-02-22T13:26:28.156Z,13.1
2018-02-22T13:27:30.966Z,12.7
2018-02-22T13:28:33.929Z,12.8
2018-02-22T13:29:35.926Z,13.2
2018-02-22T13:30:38.144Z,14.3
2018-02-22T13:31:40.294Z,13.3
2018-02-22T13:32:42.275Z,13.5
2018-02-22T13:33:44.680Z,13.1
2018-02-22T13:34:46.465Z,12.5
2018-02-22T13:35:49.510Z,12.5
2018-02-22T13:36:51.505Z,12.9
2018-02-22T13:37:54.512Z,13.5
2018-02-22T13:38:56.406Z,13.1
2018-02-22T13:39:59.032Z,12.4
2018-02-22T13:41:01.245Z,13.2
2018-02-22T13:42:05.970Z,12.4
2018-02-22T13:43:08.107Z,13.0
2018-02-22T13:44:10.293Z,12.8
2018-02-22T13:45:13.443Z,12.7
2018-02-22T13:46:15.396Z,12.6
2018-02-22T13:47:17.683Z,12.5
2018-02-22T13:48:19.673Z,12.4
2018-02-22T13:49:21.834Z,11.6
2018-02-22T13:50:24.037Z,12.5
2018-02-22T13:51:32.707Z,12.4
2018-02-22T13:52:34.995Z,11.6
2018-02-22T13:53:37.072Z,12.2
2018-02-22T13:54:39.012Z,11.6
2018-02-22T13:55:43.963Z,12.8
2018-02-22T13:56:46.122Z,12.9
2018-02-22T13:57:48.221Z,11.5
2018-02-22T13:58:50.491Z,11.4
2018-02-22T13:59:52.658Z,12.0
2018-02-22T14:00:55.105Z,11.8
2018-02-22T14:01:57.782Z,11.6
2018-02-22T14:03:01.036Z,11.6
2018-02-22T14:04:05.841Z,11.1
2018-02-22T14:05:07.933Z,11.0